Latest Coastal Weather Observations for Creal Reef

IDQ60701

Issued at 5:41 am EST Monday 2 February 2015 (issued every 10 minutes, with the page automatically refreshed every 10 minutes)

About coastal observations | Map of coastal stations | Coastal observations for QLD | Marine services | Other Formats
Station Details ID: 200736 Name: CREAL REEF Lat: -20.53 Lon: 150.38 Height: 1.7 m
Data from the previous 72 hours. | See also: Recent months for locations in Queensland
Date/Time
EST
Temp

°C
Wind Pressure Rain
since 9am
mm
Weather Cloud Vis
km
Sea
Height
m
Swell
Dir
 
Speed
knots
Gust
knots
hPa Trend Height
m
Period
s
Dir
02/05:30am 28.3 NW 10 12 1006.0 - - - - - - - - -
02/05:20am 28.2 NW 11 - 1005.9 - - - - - - - - -
02/05:00am 28.1 NW 14 17 1005.5 - - - - - - - - -
02/04:30am 27.9 NW 13 15 1005.4 - - - - - - - - -
02/04:20am 27.8 NNW 12 - 1005.3 - - - - - - - - -
02/04:00am 27.8 NNW 12 14 1005.3 - - - - - - - - -
02/03:30am 27.7 N 11 13 1005.3 - - - - - - - - -
02/03:20am 27.7 N 11 - 1005.2 - - - - - - - - -
02/03:00am 27.6 NNW 11 13 1005.1 - - - - - - - - -
02/02:30am 27.6 N 11 12 1005.3 - - - - - - - - -
02/02:20am 27.5 N 11 - 1005.2 - - - - - - - - -
02/02:00am 27.6 N 11 12 1005.2 - - - - - - - - -
02/01:30am 27.4 NNE 11 12 1005.3 - - - - - - - - -
02/01:20am 27.5 NNE 11 - 1005.3 - - - - - - - - -
02/01:00am 27.6 NNE 11 13 1005.5 - - - - - - - - -
02/12:30am 27.7 NNE 12 13 1005.8 - - - - - - - - -
02/12:20am 27.8 NNE 12 - 1005.9 - - - - - - - - -
02/12:00am 27.7 NE 11 13 1006.0 - - - - - - - - -
 
Date/Time
EST
Temp

°C
Wind Pressure Rain
since 9am
mm
Weather Cloud Vis
km
Sea
Height
m
Swell
Dir
 
Speed
knots
Gust
knots
hPa Trend Height
m
Period
s
Dir
01/11:30pm 27.8 NE 11 12 1006.3 - - - - - - - - -
01/11:20pm 27.7 NE 11 - 1006.3 - - - - - - - - -
01/11:00pm 27.9 NE 12 14 1006.5 - - - - - - - - -
01/10:30pm 28.0 NE 11 11 1006.6 - - - - - - - - -
01/10:20pm 28.0 NE 11 - 1006.6 - - - - - - - - -
01/10:00pm 28.2 NE 10 11 1006.5 - - - - - - - - -
01/09:30pm 28.4 NNE 9 10 1006.3 - - - - - - - - -
01/09:20pm 28.4 NNE 8 - 1006.2 - - - - - - - - -
01/09:00pm 28.5 N 6 7 1005.9 - - - - - - - - -
01/08:30pm 28.6 N 6 7 1005.8 - - - - - - - - -
01/08:20pm 28.6 NNE 6 - 1005.7 - - - - - - - - -
01/08:00pm 28.6 NNE 6 6 1005.7 - - - - - - - - -
01/07:30pm 28.6 N 3 4 1005.6 - - - - - - - - -
01/07:20pm 28.7 N 3 - 1005.6 - - - - - - - - -
01/07:00pm 28.7 NNW 4 5 1005.5 - - - - - - - - -
01/06:30pm 28.8 NW 4 5 1005.4 - - - - - - - - -
01/06:20pm 28.8 WNW 4 - 1005.3 - - - - - - - - -
01/06:00pm 29.1 WNW 5 5 1005.1 - - - - - - - - -
01/05:30pm 29.3 W 6 7 1005.0 - - - - - - - - -
01/05:20pm 29.2 W 6 - 1005.0 - - - - - - - - -
01/05:00pm 29.2 W 7 8 1004.9 - - - - - - - - -
01/04:30pm 29.2 W 7 8 1004.8 - - - - - - - - -
01/04:20pm 29.2 W 7 - 1004.8 - - - - - - - - -
01/04:00pm 29.4 W 7 8 1004.7 - - - - - - - - -
01/03:30pm 29.5 W 7 8 1004.6 - - - - - - - - -
01/03:20pm 29.5 W 7 - 1004.6 - - - - - - - - -
01/03:00pm 29.4 WSW 7 7 1004.7 - - - - - - - - -
01/02:30pm 29.3 WSW 8 9 1004.8 - - - - - - - - -
01/02:20pm 29.2 WSW 8 - 1004.9 - - - - - - - - -
01/02:00pm 29.0 SW 9 10 1005.1 - - - - - - - - -
01/01:30pm 28.9 SW 9 10 1005.4 - - - - - - - - -
01/01:20pm 28.8 WSW 9 - 1005.6 - - - - - - - - -
01/01:00pm 28.7 WSW 8 10 1005.9 - - - - - - - - -
01/12:30pm 28.7 WSW 9 11 1006.3 - - - - - - - - -
01/12:20pm 28.6 WSW 9 - 1006.4 - - - - - - - - -
01/12:00pm 28.6 W 8 10 1006.8 - - - - - - - - -
01/11:30am 28.5 WSW 9 11 1007.0 - - - - - - - - -
01/11:20am 28.6 WSW 9 - 1007.1 - - - - - - - - -
01/11:00am 28.5 WSW 9 10 1007.2 - - - - - - - - -
01/10:30am 28.5 WSW 9 11 1007.4 - - - - - - - - -
01/10:20am 28.4 W 9 - 1007.5 - - - - - - - - -
01/10:00am 28.3 WSW 8 10 1007.5 - - - - - - - - -
01/09:30am 28.4 W 7 9 1007.5 - - - - - - - - -
01/09:20am 28.3 W 7 - 1007.6 - - - - - - - - -
01/09:00am 28.5 WSW 6 8 1007.5 - - - - - - - - -
01/08:30am 28.5 WSW 5 7 1007.3 - - - - - - - - -
01/08:20am 28.5 WSW 4 - 1007.2 - - - - - - - - -
01/08:00am 28.6 SSW 3 4 1007.1 - - - - - - - - -
01/07:30am 28.7 CALM 0 0 1006.8 - - - - - - - - -
01/07:20am 28.5 S 3 - 1006.8 - - - - - - - - -
01/07:00am 28.2 SSW 4 6 1006.7 - - - - - - - - -
01/06:30am 28.0 S 1 4 1006.3 - - - - - - - - -
01/06:20am 27.5 SSW 4 - 1006.2 - - - - - - - - -
01/06:00am 26.9 SSW 4 5 1006.0 - - - - - - - - -
01/05:30am 26.5 CALM 0 2 1005.5 - - - - - - - - -
01/05:20am 26.6 CALM 0 - 1005.3 - - - - - - - - -
01/05:00am 26.5 CALM 0 0 1005.2 - - - - - - - - -
01/04:30am 26.8 CALM 0 1 1004.9 - - - - - - - - -
01/04:20am 26.7 SE 2 - 1004.9 - - - - - - - - -
01/04:00am 26.8 ESE 4 5 1004.9 - - - - - - - - -
01/03:30am 26.8 ESE 4 5 1004.9 - - - - - - - - -
01/03:20am 26.8 ESE 5 - 1005.0 - - - - - - - - -
01/03:00am 26.8 ESE 4 5 1004.9 - - - - - - - - -
01/02:30am 26.9 E 5 7 1005.0 - - - - - - - - -
01/02:20am 27.0 E 6 - 1005.1 - - - - - - - - -
01/02:00am 27.0 E 5 6 1005.4 - - - - - - - - -
01/01:30am 27.2 E 5 6 1005.8 - - - - - - - - -
01/01:20am 27.1 ENE 6 - 1005.8 - - - - - - - - -
01/01:00am 27.3 E 8 9 1006.3 - - - - - - - - -
01/12:30am 27.3 E 7 9 1006.6 - - - - - - - - -
01/12:20am 27.4 E 7 - 1006.7 - - - - - - - - -
01/12:00am 27.4 E 7 8 1006.9 - - - - - - - - -
 
Date/Time
EST
Temp

°C
Wind Pressure Rain
since 9am
mm
Weather Cloud Vis
km
Sea
Height
m
Swell
Dir
 
Speed
knots
Gust
knots
hPa Trend Height
m
Period
s
Dir
31/11:30pm 27.4 E 8 9 1007.0 - - - - - - - - -
31/11:20pm 27.5 E 7 - 1007.0 - - - - - - - - -
31/11:00pm 27.5 E 7 8 1007.2 - - - - - - - - -
31/10:30pm 27.6 E 7 7 1007.6 - - - - - - - - -
31/10:20pm 27.6 E 6 - 1007.5 - - - - - - - - -
31/10:00pm 27.7 ESE 6 7 1007.4 - - - - - - - - -
31/09:30pm 27.7 ESE 7 8 1007.2 - - - - - - - - -
31/09:20pm 27.8 ESE 7 - 1007.2 - - - - - - - - -
31/09:00pm 27.8 ESE 7 8 1006.9 - - - - - - - - -
31/08:30pm 27.9 SE 7 8 1006.8 - - - - - - - - -
31/08:20pm 27.9 SSE 7 - 1006.8 - - - - - - - - -
31/08:00pm 27.9 SSE 7 8 1006.7 - - - - - - - - -
31/07:30pm 27.9 S 7 9 1006.3 - - - - - - - - -
31/07:20pm 27.8 SSE 7 - 1006.1 - - - - - - - - -
31/07:00pm 28.0 S 8 10 1006.0 - - - - - - - - -
31/06:30pm 27.9 S 9 11 1005.8 - - - - - - - - -
31/06:20pm 28.0 S 9 - 1005.6 - - - - - - - - -
31/06:00pm 28.0 S 8 9 1005.5 - - - - - - - - -
31/05:30pm 28.2 SSE 9 10 1005.3 - - - - - - - - -
31/05:20pm 28.2 S 8 - 1005.1 - - - - - - - - -
31/05:00pm 28.2 SSE 8 11 1005.0 - - - - - - - - -
31/04:30pm 28.3 S 10 12 1005.2 - - - - - - - - -
31/04:20pm 28.3 S 10 - 1005.2 - - - - - - - - -
31/04:00pm 28.2 S 10 13 1005.2 - - - - - - - - -
31/03:30pm 28.2 S 10 12 1005.2 - - - - - - - - -
31/03:20pm 28.1 S 11 - 1005.3 - - - - - - - - -
31/03:00pm 28.3 S 9 11 1005.5 - - - - - - - - -
31/02:30pm 28.3 SSE 6 9 1005.3 - - - - - - - - -
31/02:20pm 28.2 S 8 - 1005.6 - - - - - - - - -
31/02:00pm 28.2 S 8 11 1005.9 - - - - - - - - -
31/01:30pm 28.0 S 8 10 1006.1 - - - - - - - - -
31/01:20pm 28.2 S 9 - 1006.2 - - - - - - - - -
31/01:00pm 28.0 S 10 11 1006.3 - - - - - - - - -
31/12:30pm 27.9 SSE 11 14 1006.5 - - - - - - - - -
31/12:20pm 28.0 S 12 - 1006.7 - - - - - - - - -
31/12:00pm 28.0 SSE 11 13 1006.8 - - - - - - - - -
31/11:30am 28.0 S 11 14 1007.3 - - - - - - - - -
31/11:20am 28.0 S 10 - 1007.3 - - - - - - - - -
31/11:00am 28.1 SSE 10 12 1007.6 - - - - - - - - -
31/10:30am 28.0 SE 8 11 1007.7 - - - - - - - - -
31/10:20am 28.0 SSE 9 - 1007.8 - - - - - - - - -
31/10:00am 28.0 SSE 9 12 1007.7 - - - - - - - - -
31/09:30am 28.0 SE 9 11 1007.8 - - - - - - - - -
31/09:20am 27.9 SE 10 - 1007.8 - - - - - - - - -
31/09:00am 27.9 ESE 11 13 1007.6 - - - - - - - - -
31/08:30am 27.8 ESE 11 13 1007.6 - - - - - - - - -
31/08:20am 27.9 ESE 12 - 1007.6 - - - - - - - - -
31/08:00am 27.7 ESE 12 15 1007.5 - - - - - - - - -
31/07:30am 27.8 ESE 13 16 1007.2 - - - - - - - - -
31/07:20am 27.7 SE 13 - 1007.1 - - - - - - - - -
31/07:00am 27.7 SE 13 15 1006.9 - - - - - - - - -
31/06:30am 27.5 SE 12 14 1006.9 - - - - - - - - -
31/06:20am 27.5 ESE 12 - 1006.8 - - - - - - - - -
31/06:00am 27.4 SE 12 14 1006.5 - - - - - - - - -
31/05:30am 27.3 SE 12 15 1006.1 - - - - - - - - -
31/05:20am 27.2 SE 12 - 1006.1 - - - - - - - - -
31/05:00am 27.2 SE 12 15 1005.9 - - - - - - - - -
31/04:30am 27.2 ESE 13 15 1005.7 - - - - - - - - -
31/04:20am 27.3 ESE 12 - 1005.6 - - - - - - - - -
31/04:00am 27.2 ESE 13 16 1005.6 - - - - - - - - -
31/03:30am 27.3 ESE 13 15 1005.6 - - - - - - - - -
31/03:20am 27.2 ESE 13 - 1005.6 - - - - - - - - -
31/03:00am 27.3 ESE 13 15 1005.7 - - - - - - - - -
31/02:30am 27.3 SE 13 16 1005.7 - - - - - - - - -
31/02:20am 27.3 ESE 13 - 1005.7 - - - - - - - - -
31/02:00am 27.2 ESE 13 16 1005.6 - - - - - - - - -
31/01:30am 27.3 ESE 12 14 1006.0 - - - - - - - - -
31/01:20am 27.4 ESE 12 - 1006.1 - - - - - - - - -
31/01:00am 27.4 ESE 13 15 1006.1 - - - - - - - - -
31/12:30am 27.5 ESE 12 14 1006.3 - - - - - - - - -
31/12:20am 27.5 ESE 13 - 1006.5 - - - - - - - - -
31/12:00am 27.6 SE 13 15 1006.6 - - - - - - - - -
 
Date/Time
EST
Temp

°C
Wind Pressure Rain
since 9am
mm
Weather Cloud Vis
km
Sea
Height
m
Swell
Dir
 
Speed
knots
Gust
knots
hPa Trend Height
m
Period
s
Dir
30/11:30pm 27.6 ESE 14 17 1006.9 - - - - - - - - -
30/11:20pm 27.8 SE 15 - 1007.0 - - - - - - - - -
30/11:00pm 27.6 ESE 14 16 1007.2 - - - - - - - - -
30/10:30pm 27.4 ESE 14 16 1007.2 - - - - - - - - -
30/10:20pm 27.4 ESE 14 - 1007.3 - - - - - - - - -
30/10:00pm 27.5 ESE 14 16 1007.3 - - - - - - - - -
30/09:30pm 27.6 ESE 16 18 1007.2 - - - - - - - - -
30/09:20pm 27.6 ESE 16 - 1007.0 - - - - - - - - -
30/09:00pm 27.8 ESE 16 18 1006.8 - - - - - - - - -
30/08:30pm 27.6 ESE 17 19 1006.6 - - - - - - - - -
30/08:20pm 27.8 ESE 17 - 1006.5 - - - - - - - - -
30/08:00pm 27.8 ESE 18 20 1006.3 - - - - - - - - -
30/07:30pm 27.7 ESE 17 20 1006.1 - - - - - - - - -
30/07:20pm 27.6 ESE 17 - 1006.0 - - - - - - - - -
30/07:00pm 27.9 ESE 17 20 1005.9 - - - - - - - - -
30/06:30pm 27.7 SE 18 21 1005.4 - - - - - - - - -
30/06:20pm 27.6 SE 18 - 1005.4 - - - - - - - - -
30/06:00pm 27.8 SE 18 21 1005.2 - - - - - - - - -
30/05:30pm 27.9 SE 16 19 1004.9 - - - - - - - - -
30/05:20pm 27.9 SE 17 - 1004.8 - - - - - - - - -
30/05:00pm 27.7 SE 17 20 1004.6 - - - - - - - - -
30/04:30pm 27.7 SE 15 17 1004.5 - - - - - - - - -
30/04:20pm 27.5 SSE 12 - 1004.6 - - - - - - - - -
30/04:00pm 27.5 SE 14 16 1004.5 - - - - - - - - -
30/03:30pm 27.2 ESE 12 15 1004.5 - - - - - - - - -
30/03:20pm 27.5 SE 12 - 1004.7 - - - - - - - - -
30/03:00pm 27.0 ESE 16 20 1004.7 - - - - - - - - -
30/02:30pm 27.1 SSW 10 12 1005.0 - - - - - - - - -
30/02:20pm 27.0 SSW 11 - 1005.0 - - - - - - - - -
30/02:00pm 26.7 SSW 12 15 1005.2 - - - - - - - - -
30/01:30pm 26.4 SW 14 17 1005.6 - - - - - - - - -
30/01:20pm 26.2 SSW 17 - 1005.7 - - - - - - - - -
30/01:07pm 25.5 SSW 20 22 1005.7 - - - - - - - - -
30/01:00pm 26.6 S 18 21 1005.7 - - - - - - - - -
30/12:30pm 28.0 SE 11 14 1006.0 - - - - - - - - -
30/12:20pm 28.1 SE 11 - 1006.1 - - - - - - - - -
30/12:00pm 28.0 SE 11 14 1006.3 - - - - - - - - -
30/11:30am 27.9 SE 10 12 1006.6 - - - - - - - - -
30/11:20am 27.8 SE 11 - 1006.7 - - - - - - - - -
30/11:00am 27.8 SE 11 12 1007.0 - - - - - - - - -
30/10:30am 27.6 SE 11 13 1006.9 - - - - - - - - -
30/10:20am 27.7 ESE 10 - 1006.8 - - - - - - - - -
30/10:00am 27.6 ESE 11 13 1006.8 - - - - - - - - -
30/09:30am 27.7 ESE 11 13 1006.8 - - - - - - - - -
30/09:20am 27.7 SE 12 - 1006.9 - - - - - - - - -
30/09:00am 27.7 ESE 11 13 1006.8 - - - - - - - - -
30/08:30am 27.7 SE 11 14 1006.4 - - - - - - - - -
30/08:20am 27.9 SSE 10 - 1006.4 - - - - - - - - -
30/08:00am 27.6 SE 13 16 1006.2 - - - - - - - - -
30/07:30am 27.3 SE 13 15 1006.0 - - - - - - - - -
30/07:20am 27.3 SE 13 - 1006.0 - - - - - - - - -
30/07:00am 27.3 SE 13 15 1005.7 - - - - - - - - -
30/06:30am 27.1 SE 13 15 1005.5 - - - - - - - - -
30/06:20am 27.0 ESE 14 - 1005.4 - - - - - - - - -
30/06:00am 27.1 ESE 14 17 1005.2 - - - - - - - - -

Other Formats:

Comma delimited format used in spreadsheet applications
http://www.bom.gov.au/fwo/IDQ60701/IDQ60701.94371.axf

JavaScript Object Notation format (JSON) in row-major order
http://www.bom.gov.au/fwo/IDQ60701/IDQ60701.94371.json